Time;durP1;ratioP1;P1;durP2;ratioP2;P2;SDS_P1;SDS_P2;PMS_P1;PMS_P2;Temp;Humidity;BMP_temperature;BMP_pressure;BME280_temperature;BME280_humidity;BME280_pressure;Samples;Min_cycle;Max_cycle;Signal;HPM_P1;HPM_P2
2021/07/01 00:01:37;;;;;;;0.50;0.50;;;13.40;88.70;;;;;;5020965;28;20423;-75
2021/07/01 00:04:03;;;;;;;0.90;0.90;;;13.40;88.90;;;;;;5011831;28;20029;-75
2021/07/01 00:06:29;;;;;;;0.52;0.40;;;13.40;88.60;;;;;;5022574;28;20030;-75
2021/07/01 00:08:54;;;;;;;0.43;0.43;;;13.40;88.70;;;;;;5025047;28;20069;-75
2021/07/01 00:11:20;;;;;;;0.52;0.50;;;13.50;88.80;;;;;;5026658;28;20030;-75
2021/07/01 00:13:45;;;;;;;0.63;0.60;;;13.40;89.20;;;;;;5018814;28;20032;-74
2021/07/01 00:16:11;;;;;;;0.43;0.43;;;13.30;88.30;;;;;;5027060;28;20133;-75
2021/07/01 00:18:37;;;;;;;0.80;0.70;;;13.30;88.60;;;;;;5016191;28;20045;-75
2021/07/01 00:21:02;;;;;;;1.33;0.70;;;13.40;89.50;;;;;;5022947;28;20092;-75
2021/07/01 00:23:28;;;;;;;0.47;0.47;;;13.30;88.70;;;;;;5022162;28;20638;-75
2021/07/01 00:25:54;;;;;;;0.70;0.70;;;13.30;89.30;;;;;;5016006;28;20111;-75
2021/07/01 00:28:20;;;;;;;4.13;1.00;;;13.30;89.40;;;;;;5024582;28;20060;-74
2021/07/01 00:30:45;;;;;;;0.63;0.63;;;13.30;89.30;;;;;;5014446;28;20440;-75
2021/07/01 00:33:11;;;;;;;0.98;0.75;;;13.30;89.60;;;;;;5023454;28;20497;-75
2021/07/01 00:35:37;;;;;;;0.95;0.60;;;13.30;90.00;;;;;;5023241;28;20030;-75
2021/07/01 00:38:03;;;;;;;0.70;0.70;;;13.20;89.00;;;;;;5022851;28;20037;-75
2021/07/01 00:40:29;;;;;;;0.80;0.80;;;13.20;88.70;;;;;;5020066;28;20393;-75
2021/07/01 00:42:54;;;;;;;0.55;0.55;;;13.20;88.20;;;;;;5029317;28;20124;-75
2021/07/01 00:45:20;;;;;;;0.60;0.60;;;13.20;89.80;;;;;;5025047;28;20114;-75
2021/07/01 00:47:46;;;;;;;0.68;0.68;;;13.10;89.00;;;;;;5022383;28;20562;-75
2021/07/01 00:50:13;;;;;;;0.60;0.60;;;13.10;89.60;;;;;;5025138;28;20093;-74
2021/07/01 00:52:39;;;;;;;0.85;0.70;;;13.10;89.50;;;;;;5027436;28;20056;-74
2021/07/01 00:55:07;;;;;;;0.70;0.70;;;13.10;89.40;;;;;;5019111;28;20021;-73
2021/07/01 00:57:33;;;;;;;2.88;1.08;;;13.00;88.50;;;;;;5017576;28;20412;-75
2021/07/01 00:59:59;;;;;;;3.53;1.10;;;13.10;89.10;;;;;;5018187;28;20541;-75
2021/07/01 01:02:26;;;;;;;0.70;0.70;;;13.00;88.20;;;;;;5025174;28;20113;-74
2021/07/01 01:04:51;;;;;;;1.00;0.80;;;13.00;88.00;;;;;;5022855;28;20026;-74
2021/07/01 01:07:17;;;;;;;1.25;0.98;;;12.90;88.30;;;;;;5021640;28;20570;-74
2021/07/01 01:09:43;;;;;;;1.10;0.82;;;12.90;88.80;;;;;;5017269;28;20021;-74
2021/07/01 01:12:09;;;;;;;1.48;0.90;;;12.90;88.50;;;;;;5017750;28;20021;-73
2021/07/01 01:14:35;;;;;;;0.70;0.70;;;12.90;88.80;;;;;;5027573;28;20072;-74
2021/07/01 01:17:00;;;;;;;2.17;0.80;;;12.90;88.20;;;;;;5014493;28;20022;-73
2021/07/01 01:19:26;;;;;;;0.80;0.80;;;12.90;88.60;;;;;;5023424;28;20061;-74
2021/07/01 01:21:52;;;;;;;0.90;0.90;;;12.90;88.40;;;;;;5026442;28;20554;-74
2021/07/01 01:24:17;;;;;;;0.80;0.80;;;12.90;88.80;;;;;;5020478;28;20037;-74
2021/07/01 01:26:43;;;;;;;0.80;0.80;;;12.90;88.90;;;;;;5023364;28;20025;-74
2021/07/01 01:29:08;;;;;;;1.73;0.90;;;12.80;89.10;;;;;;5014093;28;20400;-74
2021/07/01 01:31:37;;;;;;;0.90;0.90;;;12.90;89.10;;;;;;5015729;28;20044;-74
2021/07/01 01:34:03;;;;;;;0.85;0.85;;;12.90;89.20;;;;;;5022416;28;20088;-73
2021/07/01 01:36:29;;;;;;;1.30;0.90;;;12.90;89.00;;;;;;5016523;28;20045;-74
2021/07/01 01:38:55;;;;;;;2.17;0.90;;;12.80;89.90;;;;;;5018109;28;20040;-74
2021/07/01 01:41:25;;;;;;;1.70;0.80;;;12.90;89.90;;;;;;5018888;28;20033;-75
2021/07/01 01:43:51;;;;;;;1.90;1.00;;;12.80;89.50;;;;;;5016686;28;20041;-74
2021/07/01 01:46:17;;;;;;;0.80;0.80;;;12.80;89.60;;;;;;5021927;28;20392;-74
2021/07/01 01:48:43;;;;;;;1.08;0.80;;;12.80;89.90;;;;;;5021048;28;20105;-74
2021/07/01 01:51:09;;;;;;;3.97;0.80;;;12.80;90.00;;;;;;5029220;28;20026;-74
2021/07/01 01:53:34;;;;;;;1.45;0.90;;;12.80;90.10;;;;;;5015403;28;20032;-74
2021/07/01 01:56:00;;;;;;;0.77;0.77;;;12.80;90.00;;;;;;5026395;28;20033;-74
2021/07/01 01:58:25;;;;;;;0.60;0.60;;;12.80;90.10;;;;;;5023201;28;20091;-74
2021/07/01 02:00:51;;;;;;;1.23;0.80;;;12.80;89.90;;;;;;5021752;28;20065;-74
2021/07/01 02:03:17;;;;;;;0.80;0.80;;;12.80;89.90;;;;;;5017056;28;20112;-74
2021/07/01 02:05:42;;;;;;;0.80;0.80;;;12.80;90.10;;;;;;5009325;28;20041;-74
2021/07/01 02:08:09;;;;;;;0.75;0.75;;;12.80;90.00;;;;;;5021128;28;20140;-74
2021/07/01 02:10:35;;;;;;;1.80;0.82;;;12.80;90.30;;;;;;5015538;28;20032;-74
2021/07/01 02:13:03;;;;;;;1.52;0.80;;;12.80;90.20;;;;;;5019152;28;20029;-74
2021/07/01 02:15:29;;;;;;;0.80;0.80;;;12.80;90.30;;;;;;5026933;28;20017;-74
2021/07/01 02:17:55;;;;;;;1.02;1.00;;;12.80;90.00;;;;;;5014726;28;20029;-74
2021/07/01 02:20:24;;;;;;;0.73;0.73;;;12.80;90.10;;;;;;5022355;28;20438;-75
2021/07/01 02:22:50;;;;;;;0.90;0.70;;;12.80;90.20;;;;;;5022627;28;20033;-73
2021/07/01 02:25:16;;;;;;;0.80;0.80;;;12.80;90.20;;;;;;5025903;28;20033;-74
2021/07/01 02:27:43;;;;;;;1.23;0.80;;;12.80;90.30;;;;;;5026788;28;20028;-74
2021/07/01 02:30:11;;;;;;;0.70;0.70;;;12.80;90.30;;;;;;5020104;28;20030;-73
2021/07/01 02:32:38;;;;;;;1.00;0.90;;;12.80;90.30;;;;;;5024190;28;20408;-74
2021/07/01 02:35:05;;;;;;;0.90;0.90;;;12.80;90.30;;;;;;5012945;28;20049;-74
2021/07/01 02:37:31;;;;;;;0.75;0.75;;;12.80;90.40;;;;;;5026643;28;20024;-74
2021/07/01 02:39:56;;;;;;;1.00;0.90;;;12.80;90.60;;;;;;5022365;28;20951;-75
2021/07/01 02:42:22;;;;;;;0.82;0.82;;;12.80;90.70;;;;;;5009602;28;20061;-74
2021/07/01 02:44:47;;;;;;;1.20;1.00;;;12.80;90.60;;;;;;5018333;28;20113;-73
2021/07/01 02:47:13;;;;;;;1.30;0.98;;;12.80;90.60;;;;;;5018973;28;20029;-74
2021/07/01 02:49:39;;;;;;;0.88;0.73;;;12.80;90.80;;;;;;5026508;28;20060;-74
2021/07/01 02:52:05;;;;;;;0.95;0.90;;;12.90;90.90;;;;;;5024646;28;20037;-74
2021/07/01 02:54:30;;;;;;;0.98;0.90;;;12.90;90.80;;;;;;5014205;28;20104;-74
2021/07/01 02:56:56;;;;;;;1.00;0.90;;;12.90;90.60;;;;;;5011519;28;20503;-74
2021/07/01 02:59:22;;;;;;;1.73;0.90;;;13.00;90.60;;;;;;5022808;28;20045;-74
2021/07/01 03:01:51;;;;;;;0.95;0.93;;;13.00;90.60;;;;;;5015510;28;20041;-74
2021/07/01 03:04:16;;;;;;;0.93;0.80;;;13.00;90.70;;;;;;5010803;28;20039;-75
2021/07/01 03:06:43;;;;;;;1.02;0.82;;;13.00;90.70;;;;;;5003721;28;20033;-73
2021/07/01 03:09:09;;;;;;;1.10;1.00;;;12.90;90.80;;;;;;5004646;28;20795;-74
2021/07/01 03:11:36;;;;;;;0.98;0.98;;;12.90;91.00;;;;;;5015677;28;20021;-73
2021/07/01 03:14:04;;;;;;;1.10;0.90;;;12.90;91.00;;;;;;5015767;28;20029;-73
2021/07/01 03:16:30;;;;;;;;;;;12.90;91.00;;;;;;5024097;28;20033;-74
2021/07/01 03:18:56;;;;;;;1.00;1.00;;;13.00;91.00;;;;;;5016873;28;19917;-74
2021/07/01 03:21:22;;;;;;;1.00;1.00;;;13.00;90.90;;;;;;5016527;28;20098;-73
2021/07/01 03:23:48;;;;;;;1.30;0.93;;;13.00;91.20;;;;;;5018768;28;20563;-73
2021/07/01 03:26:15;;;;;;;1.48;0.93;;;13.00;91.00;;;;;;5007092;28;20404;-73
2021/07/01 03:28:41;;;;;;;1.33;1.23;;;13.00;91.00;;;;;;5007671;28;20451;-73
2021/07/01 03:31:07;;;;;;;1.40;1.10;;;13.00;90.90;;;;;;5002319;28;20037;-73
2021/07/01 03:33:33;;;;;;;1.88;1.20;;;13.00;91.10;;;;;;5012418;28;20029;-75
2021/07/01 03:36:00;;;;;;;1.20;1.10;;;13.00;90.90;;;;;;5022039;28;20026;-75
2021/07/01 03:38:26;;;;;;;1.58;1.30;;;13.00;90.80;;;;;;5020857;28;20026;-74
2021/07/01 03:40:52;;;;;;;1.65;1.40;;;13.00;90.90;;;;;;5024750;28;20519;-74
2021/07/01 03:43:18;;;;;;;1.33;1.20;;;13.00;90.80;;;;;;5024057;28;20134;-74
2021/07/01 03:45:44;;;;;;;1.67;1.40;;;13.10;90.70;;;;;;5019081;28;20025;-75
2021/07/01 03:48:11;;;;;;;1.20;1.10;;;13.00;90.80;;;;;;5021899;28;20042;-74
2021/07/01 03:50:37;;;;;;;1.80;1.30;;;13.00;90.80;;;;;;5026989;28;20036;-75
2021/07/01 03:53:03;;;;;;;1.85;1.25;;;13.00;90.90;;;;;;5017071;28;20109;-75
2021/07/01 03:55:28;;;;;;;2.50;1.27;;;13.00;91.00;;;;;;5022163;28;20100;-75
2021/07/01 03:57:54;;;;;;;1.55;1.38;;;13.00;90.90;;;;;;5015287;28;20039;-75
2021/07/01 04:00:20;;;;;;;1.95;1.38;;;13.00;91.10;;;;;;5019573;28;20508;-75
2021/07/01 04:02:46;;;;;;;2.42;1.58;;;13.00;91.00;;;;;;5014385;28;20103;-75
2021/07/01 04:05:12;;;;;;;2.28;1.40;;;13.00;91.00;;;;;;5011361;28;20033;-75
2021/07/01 04:07:38;;;;;;;2.50;1.55;;;13.00;91.00;;;;;;5015627;28;20033;-75
2021/07/01 04:10:07;;;;;;;1.65;1.40;;;13.00;90.90;;;;;;5016429;28;20051;-75
2021/07/01 04:12:34;;;;;;;1.92;1.65;;;13.00;91.10;;;;;;5021099;28;20408;-75
2021/07/01 04:14:59;;;;;;;2.10;1.60;;;13.00;91.00;;;;;;5023254;28;20021;-75
2021/07/01 04:17:25;;;;;;;1.85;1.58;;;13.00;91.00;;;;;;5010239;28;21966;-75
2021/07/01 04:19:51;;;;;;;2.78;1.80;;;13.00;90.90;;;;;;5027608;28;20040;-75
2021/07/01 04:22:16;;;;;;;1.85;1.65;;;13.10;91.10;;;;;;5024709;28;20511;-74
2021/07/01 04:24:42;;;;;;;2.67;1.92;;;13.10;91.10;;;;;;5023254;28;20769;-74
2021/07/01 04:27:07;;;;;;;1.77;1.67;;;13.10;91.00;;;;;;5022938;28;20040;-75
2021/07/01 04:29:33;;;;;;;2.13;1.90;;;13.10;91.00;;;;;;5017266;28;20030;-75
2021/07/01 04:31:59;;;;;;;2.28;1.90;;;13.00;91.10;;;;;;5014683;28;20103;-75
2021/07/01 04:34:25;;;;;;;2.47;1.90;;;13.10;91.10;;;;;;5022221;28;20026;-75
2021/07/01 04:36:51;;;;;;;2.33;1.90;;;13.10;91.20;;;;;;5021806;28;20033;-75
2021/07/01 04:39:17;;;;;;;2.85;1.80;;;13.10;91.10;;;;;;5021566;28;20029;-75
2021/07/01 04:41:43;;;;;;;2.95;1.88;;;13.10;91.00;;;;;;5020741;28;20040;-75
2021/07/01 04:44:09;;;;;;;2.42;1.70;;;13.10;91.00;;;;;;5019675;28;20038;-75
2021/07/01 04:46:35;;;;;;;2.30;1.70;;;13.10;90.90;;;;;;5027062;28;20025;-75
2021/07/01 04:49:00;;;;;;;3.35;2.00;;;13.20;91.00;;;;;;5016257;28;20028;-74
2021/07/01 04:51:27;;;;;;;3.10;1.85;;;13.10;90.90;;;;;;5007398;28;20060;-75
2021/07/01 04:53:53;;;;;;;3.13;1.90;;;13.20;91.00;;;;;;5015152;28;20481;-74
2021/07/01 04:56:19;;;;;;;2.83;1.80;;;13.20;91.00;;;;;;5024172;28;20093;-75
2021/07/01 04:58:44;;;;;;;2.20;1.95;;;13.20;90.90;;;;;;5027992;28;20033;-74
2021/07/01 05:01:10;;;;;;;1.90;1.70;;;13.10;90.90;;;;;;5011118;28;20041;-75
2021/07/01 05:03:36;;;;;;;1.85;1.60;;;13.20;90.90;;;;;;5024168;28;20034;-75
2021/07/01 05:06:02;;;;;;;2.10;1.90;;;13.10;90.80;;;;;;5025108;28;20060;-76
2021/07/01 05:08:28;;;;;;;2.38;1.85;;;13.20;90.80;;;;;;5018825;28;20053;-74
2021/07/01 05:10:54;;;;;;;2.85;2.05;;;13.20;91.00;;;;;;5015747;28;20072;-75
2021/07/01 05:13:20;;;;;;;3.28;1.77;;;13.10;91.20;;;;;;5020305;28;20072;-74
2021/07/01 05:15:46;;;;;;;2.40;1.83;;;13.10;91.10;;;;;;5026956;28;20030;-74
2021/07/01 05:18:11;;;;;;;2.35;1.80;;;13.10;91.20;;;;;;5019013;28;22007;-74
2021/07/01 05:20:37;;;;;;;3.50;1.60;;;13.20;91.30;;;;;;5020795;28;20025;-74
2021/07/01 05:23:03;;;;;;;2.95;1.77;;;13.10;91.10;;;;;;5019908;28;20506;-74
2021/07/01 05:25:29;;;;;;;2.13;1.90;;;13.10;91.50;;;;;;5012529;28;20033;-74
2021/07/01 05:27:55;;;;;;;2.08;1.80;;;13.10;91.20;;;;;;5019297;28;20378;-74
2021/07/01 05:30:20;;;;;;;1.90;1.80;;;13.10;91.20;;;;;;5017716;28;20117;-74
2021/07/01 05:32:46;;;;;;;3.90;2.00;;;13.20;91.50;;;;;;5005460;28;20556;-74
2021/07/01 05:35:12;;;;;;;2.20;1.77;;;13.20;91.60;;;;;;5022514;28;20140;-74
2021/07/01 05:37:38;;;;;;;2.90;1.80;;;13.20;91.70;;;;;;5022967;28;20029;-74
2021/07/01 05:40:05;;;;;;;2.08;1.60;;;13.30;91.50;;;;;;5014601;28;21144;-74
2021/07/01 05:42:31;;;;;;;1.90;1.70;;;13.30;91.70;;;;;;5006584;28;20038;-75
2021/07/01 05:44:57;;;;;;;2.28;1.70;;;13.30;91.20;;;;;;5011112;28;20391;-75
2021/07/01 05:47:23;;;;;;;1.95;1.60;;;13.30;91.30;;;;;;5017917;28;20013;-75
2021/07/01 05:49:49;;;;;;;2.10;1.80;;;13.40;91.40;;;;;;5015864;28;20523;-74
2021/07/01 05:52:21;;;;;;;2.70;1.73;;;13.40;91.50;;;;;;5022725;28;20408;-74
2021/07/01 05:54:55;;;;;;;2.70;1.75;;;13.40;91.50;;;;;;5012042;28;20651;-74
2021/07/01 05:57:21;;;;;;;4.07;2.03;;;13.50;91.70;;;;;;5023209;28;20071;-74
2021/07/01 05:59:47;;;;;;;3.70;1.83;;;13.50;91.20;;;;;;5021622;28;20108;-74
2021/07/01 06:02:12;;;;;;;2.50;1.60;;;13.50;91.20;;;;;;5024266;28;20128;-74
2021/07/01 06:04:39;;;;;;;2.58;1.98;;;13.60;91.20;;;;;;5020520;28;20028;-75
2021/07/01 06:07:05;;;;;;;2.08;1.65;;;13.60;90.90;;;;;;5004361;28;20076;-75
2021/07/01 06:09:31;;;;;;;2.65;1.92;;;13.60;91.20;;;;;;5012057;28;20044;-74
2021/07/01 06:12:00;;;;;;;4.18;2.70;;;13.70;90.80;;;;;;5020713;28;20041;-75
2021/07/01 06:14:28;;;;;;;4.03;2.20;;;13.60;90.80;;;;;;5020126;28;20048;-74
2021/07/01 06:16:56;;;;;;;3.38;2.30;;;13.60;90.90;;;;;;5021486;28;20104;-74
2021/07/01 06:19:22;;;;;;;7.50;2.35;;;13.70;90.90;;;;;;5020893;28;20053;-74
2021/07/01 06:21:49;;;;;;;2.63;1.80;;;13.70;91.00;;;;;;5024882;28;20500;-75
2021/07/01 06:24:16;;;;;;;4.53;2.60;;;13.80;91.20;;;;;;5023131;28;20040;-75
2021/07/01 06:26:43;;;;;;;1.98;1.70;;;13.90;91.20;;;;;;5018718;28;20017;-75
2021/07/01 06:29:11;;;;;;;2.55;1.95;;;13.90;91.20;;;;;;5020106;28;20021;-75
2021/07/01 06:31:37;;;;;;;1.90;1.80;;;13.90;90.90;;;;;;5021305;28;20048;-74
2021/07/01 06:34:03;;;;;;;2.08;1.80;;;13.90;90.80;;;;;;5024050;28;20029;-74
2021/07/01 06:36:29;;;;;;;5.55;2.10;;;13.90;90.80;;;;;;5027148;28;20025;-75
2021/07/01 06:38:58;;;;;;;2.47;2.00;;;13.90;90.80;;;;;;5023058;28;20401;-75
2021/07/01 06:41:27;;;;;;;3.45;2.20;;;13.80;90.90;;;;;;5025594;28;20035;-75
2021/07/01 06:43:54;;;;;;;1.83;1.67;;;13.80;91.20;;;;;;5014372;28;21044;-74
2021/07/01 06:46:21;;;;;;;2.13;1.73;;;13.80;91.00;;;;;;5021800;28;20049;-75
2021/07/01 06:48:47;;;;;;;2.17;1.92;;;13.90;91.10;;;;;;5021484;28;20105;-74
2021/07/01 06:51:14;;;;;;;2.22;1.88;;;13.90;91.20;;;;;;5017104;28;20041;-75
2021/07/01 06:53:41;;;;;;;4.45;2.00;;;13.90;91.20;;;;;;5024860;28;20025;-74
2021/07/01 06:56:07;;;;;;;2.20;1.77;;;13.90;91.20;;;;;;5020960;28;20036;-74
2021/07/01 06:58:34;;;;;;;2.50;2.00;;;13.90;90.80;;;;;;5018680;28;20033;-74
2021/07/01 07:01:00;;;;;;;3.20;2.13;;;13.90;91.40;;;;;;5023602;28;20030;-75
2021/07/01 07:03:26;;;;;;;2.08;1.85;;;14.00;91.20;;;;;;5020635;28;20527;-74
2021/07/01 07:05:54;;;;;;;3.30;2.10;;;14.00;91.20;;;;;;5019996;28;20037;-73
2021/07/01 07:08:21;;;;;;;3.33;2.30;;;14.00;91.40;;;;;;5020606;28;20026;-74
2021/07/01 07:10:47;;;;;;;1.67;1.55;;;14.00;90.90;;;;;;5023662;28;20120;-74
2021/07/01 07:13:15;;;;;;;2.65;1.70;;;14.10;91.00;;;;;;5026697;28;20034;-74
2021/07/01 07:15:42;;;;;;;3.13;2.40;;;14.10;90.80;;;;;;5031766;28;20028;-75
2021/07/01 07:18:23;;;;;;;2.13;1.83;;;14.20;90.70;;;;;;5017896;28;20025;-75
2021/07/01 07:21:03;;;;;;;3.30;1.90;;;14.20;90.60;;;;;;5024866;28;20041;-74
2021/07/01 07:23:34;;;;;;;2.63;1.98;;;14.20;90.40;;;;;;5032639;28;20049;-74
2021/07/01 07:26:07;;;;;;;1.92;1.70;;;14.10;89.80;;;;;;5017622;28;20120;-74
2021/07/01 07:28:34;;;;;;;2.88;2.03;;;14.10;90.80;;;;;;5024332;28;20033;-74
2021/07/01 07:31:00;;;;;;;2.17;1.75;;;14.20;90.50;;;;;;5023285;28;20026;-74
2021/07/01 07:33:28;;;;;;;2.03;1.80;;;14.20;90.30;;;;;;5024491;28;20036;-74
2021/07/01 07:35:55;;;;;;;5.25;2.05;;;14.20;91.00;;;;;;5031931;28;20029;-75
2021/07/01 07:38:24;;;;;;;2.70;2.05;;;14.40;90.80;;;;;;5028512;28;20511;-74
2021/07/01 07:40:52;;;;;;;2.50;1.90;;;14.50;90.40;;;;;;5025588;28;20037;-74
2021/07/01 07:43:19;;;;;;;1.95;1.73;;;14.60;90.50;;;;;;5023603;28;20025;-73
2021/07/01 07:45:50;;;;;;;1.83;1.67;;;14.60;90.30;;;;;;5029555;28;20065;-74
2021/07/01 07:48:16;;;;;;;2.05;1.70;;;14.70;90.30;;;;;;5024912;28;20045;-74
2021/07/01 07:50:48;;;;;;;1.90;1.70;;;14.70;90.30;;;;;;5029409;28;20429;-74
2021/07/01 07:53:20;;;;;;;2.42;1.88;;;14.70;90.40;;;;;;5027854;28;20022;-74
2021/07/01 07:55:52;;;;;;;1.63;1.48;;;14.70;90.50;;;;;;5021914;28;20108;-75
2021/07/01 07:58:20;;;;;;;1.60;1.50;;;14.80;89.50;;;;;;5021798;28;20467;-75
2021/07/01 08:00:46;;;;;;;1.95;1.45;;;14.80;90.20;;;;;;5024531;28;20401;-73
2021/07/01 08:03:13;;;;;;;2.65;1.55;;;14.70;89.60;;;;;;5015856;28;20029;-74
2021/07/01 08:05:39;;;;;;;1.73;1.50;;;14.70;90.00;;;;;;5032261;28;20033;-75
2021/07/01 08:08:12;;;;;;;1.83;1.38;;;14.80;89.60;;;;;;5027465;28;20392;-74
2021/07/01 08:10:40;;;;;;;1.60;1.45;;;14.80;90.00;;;;;;5028674;28;20408;-75
2021/07/01 08:13:06;;;;;;;3.28;1.90;;;14.70;87.90;;;;;;5032049;28;20477;-75
2021/07/01 08:15:37;;;;;;;1.52;1.38;;;14.60;89.50;;;;;;5026966;28;20041;-75
2021/07/01 08:18:04;;;;;;;2.20;1.70;;;14.60;86.70;;;;;;5024661;28;20108;-75
2021/07/01 08:20:31;;;;;;;2.55;1.83;;;14.50;89.60;;;;;;5027827;28;20089;-75
2021/07/01 08:22:57;;;;;;;2.22;1.90;;;14.60;90.10;;;;;;5021539;28;20029;-75
2021/07/01 08:25:24;;;;;;;3.20;2.15;;;14.70;91.20;;;;;;5024799;28;20029;-75
2021/07/01 08:27:51;;;;;;;2.97;1.85;;;14.80;90.10;;;;;;5027925;28;20043;-75
2021/07/01 08:30:20;;;;;;;5.70;2.30;;;14.90;90.10;;;;;;5025457;28;20078;-75
2021/07/01 08:32:47;;;;;;;2.47;1.83;;;14.90;90.00;;;;;;5021210;28;20156;-74
2021/07/01 08:35:20;;;;;;;3.43;2.43;;;14.90;88.80;;;;;;5025528;28;20032;-74
2021/07/01 08:37:52;;;;;;;3.50;2.20;;;14.90;87.80;;;;;;5016582;28;20080;-75
2021/07/01 08:40:20;;;;;;;2.20;1.70;;;14.90;88.10;;;;;;5022051;28;20030;-74
2021/07/01 08:42:48;;;;;;;2.13;1.80;;;14.90;88.30;;;;;;5024673;28;20152;-75
2021/07/01 08:45:15;;;;;;;2.60;2.15;;;14.80;87.50;;;;;;5023196;28;20048;-76
2021/07/01 08:47:43;;;;;;;2.95;2.10;;;14.90;87.40;;;;;;5020462;28;20157;-74
2021/07/01 08:50:17;;;;;;;2.08;1.88;;;14.90;87.60;;;;;;5029017;28;20056;-75
2021/07/01 08:53:02;;;;;;;2.83;2.28;;;14.80;86.30;;;;;;5015606;28;20025;-73
2021/07/01 08:55:29;;;;;;;2.03;1.83;;;14.90;86.90;;;;;;5012464;28;20026;-74
2021/07/01 08:57:57;;;;;;;5.82;2.05;;;14.90;88.70;;;;;;5018258;28;20045;-75
2021/07/01 09:00:24;;;;;;;3.63;2.30;;;15.00;89.90;;;;;;5024653;28;20416;-75
2021/07/01 09:03:14;;;;;;;2.73;2.03;;;15.00;88.90;;;;;;5024941;28;20033;-74
2021/07/01 09:05:44;;;;;;;2.47;2.10;;;15.10;87.70;;;;;;5025082;28;20287;-75
2021/07/01 09:08:12;;;;;;;3.40;2.30;;;15.00;87.10;;;;;;5023615;28;20036;-73
2021/07/01 09:10:52;;;;;;;2.85;2.10;;;15.10;87.50;;;;;;5024356;28;20108;-75
2021/07/01 09:13:21;;;;;;;2.38;2.10;;;15.00;87.40;;;;;;5016996;28;20232;-75
2021/07/01 09:15:48;;;;;;;2.88;2.22;;;15.10;87.80;;;;;;5026727;28;20037;-76
2021/07/01 09:18:14;;;;;;;2.15;1.95;;;15.10;88.60;;;;;;5016504;28;20037;-75
2021/07/01 09:20:41;;;;;;;2.35;1.92;;;15.20;87.30;;;;;;5018819;28;20401;-74
2021/07/01 09:23:09;;;;;;;2.78;2.08;;;15.20;86.60;;;;;;5016978;28;20029;-73
2021/07/01 09:25:37;;;;;;;2.85;1.98;;;15.10;86.30;;;;;;5020320;28;20021;-75
2021/07/01 09:28:03;;;;;;;3.30;2.10;;;15.10;84.90;;;;;;5018373;28;20029;-73
2021/07/01 09:30:31;;;;;;;3.80;1.88;;;15.10;86.70;;;;;;5010812;28;20057;-73
2021/07/01 09:32:57;;;;;;;2.30;1.67;;;15.20;86.30;;;;;;5024377;28;20173;-74
2021/07/01 09:35:29;;;;;;;2.60;1.67;;;15.30;85.80;;;;;;5024022;28;20049;-75
2021/07/01 09:37:55;;;;;;;2.83;2.05;;;15.30;84.80;;;;;;5022303;28;20076;-74
2021/07/01 09:40:23;;;;;;;2.20;1.88;;;15.40;84.80;;;;;;5026020;28;20053;-75
2021/07/01 09:42:57;;;;;;;2.17;1.88;;;15.40;84.60;;;;;;5018697;28;20031;-74
2021/07/01 09:45:25;;;;;;;6.63;2.10;;;15.50;84.40;;;;;;5027336;28;20041;-74
2021/07/01 09:47:52;;;;;;;;;;;15.60;85.90;;;;;;5025590;28;20040;-74
2021/07/01 09:50:21;;;;;;;2.58;1.83;;;15.70;84.40;;;;;;5026474;28;19916;-74
2021/07/01 09:52:48;;;;;;;2.75;2.10;;;15.70;84.40;;;;;;5027134;28;20025;-74
2021/07/01 09:55:14;;;;;;;1.98;1.80;;;15.80;83.60;;;;;;5024598;28;20022;-74
2021/07/01 09:57:44;;;;;;;2.38;1.77;;;15.80;84.10;;;;;;5022678;28;20029;-74
2021/07/01 10:00:12;;;;;;;3.33;1.73;;;15.70;80.70;;;;;;5023161;28;20047;-75
2021/07/01 10:02:39;;;;;;;2.92;1.98;;;15.70;84.30;;;;;;5023363;28;20029;-74
2021/07/01 10:05:27;;;;;;;3.63;1.98;;;15.70;82.80;;;;;;5023517;28;21992;-74
2021/07/01 10:07:53;;;;;;;3.67;1.77;;;15.80;83.30;;;;;;5026566;28;20034;-74
2021/07/01 10:10:19;;;;;;;2.03;1.83;;;15.80;81.10;;;;;;5024704;28;20021;-74
2021/07/01 10:12:55;;;;;;;2.25;1.63;;;15.80;82.60;;;;;;5023427;28;20098;-74
2021/07/01 10:15:35;;;;;;;3.38;1.67;;;15.80;83.10;;;;;;5023753;28;20998;-75
2021/07/01 10:18:08;;;;;;;1.83;1.50;;;15.80;81.60;;;;;;5036232;28;20408;-73
2021/07/01 10:20:50;;;;;;;2.55;1.90;;;15.80;82.40;;;;;;5026583;28;20025;-75
2021/07/01 10:23:20;;;;;;;2.08;1.70;;;15.80;81.50;;;;;;5023801;28;20510;-75
2021/07/01 10:25:47;;;;;;;3.20;2.08;;;15.90;81.60;;;;;;5017061;28;20044;-74
2021/07/01 10:28:15;;;;;;;2.72;2.05;;;16.00;82.90;;;;;;5019608;28;20030;-74
2021/07/01 10:30:42;;;;;;;;;;;16.00;81.60;;;;;;5023780;28;20045;-74
2021/07/01 10:33:29;;;;;;;3.25;1.85;;;16.20;81.80;;;;;;5022075;28;20339;-75
2021/07/01 10:36:02;;;;;;;3.57;1.93;;;16.40;84.00;;;;;;5021859;28;20033;-74
2021/07/01 10:38:41;;;;;;;2.30;1.90;;;16.50;81.90;;;;;;5024786;28;20787;-74
2021/07/01 10:41:07;;;;;;;4.30;2.15;;;16.50;79.70;;;;;;5021351;28;20231;-74
2021/07/01 10:43:43;;;;;;;4.47;2.30;;;16.60;81.70;;;;;;5025007;28;20033;-74
2021/07/01 10:46:10;;;;;;;2.30;1.80;;;16.60;80.10;;;;;;5021153;28;20136;-74
2021/07/01 10:48:36;;;;;;;1.92;1.73;;;16.60;80.10;;;;;;5022044;28;20025;-74
2021/07/01 10:51:13;;;;;;;2.58;1.95;;;16.50;79.60;;;;;;5027956;28;20021;-75
2021/07/01 10:53:41;;;;;;;2.70;2.20;;;16.60;80.00;;;;;;5024405;28;20029;-74
2021/07/01 10:56:09;;;;;;;3.33;2.33;;;16.60;78.80;;;;;;5025572;28;20033;-73
2021/07/01 10:58:36;;;;;;;2.15;1.90;;;16.50;81.40;;;;;;5023154;28;20061;-75
2021/07/01 11:01:03;;;;;;;2.38;2.05;;;16.60;80.40;;;;;;5020100;28;20121;-75
2021/07/01 11:03:31;;;;;;;2.97;2.20;;;16.60;80.00;;;;;;5019497;28;20018;-74
2021/07/01 11:06:00;;;;;;;3.33;2.08;;;16.50;78.60;;;;;;5022044;28;20040;-75
2021/07/01 11:08:28;;;;;;;3.13;2.40;;;16.50;78.50;;;;;;5020046;28;20057;-74
2021/07/01 11:10:54;;;;;;;2.65;2.10;;;16.40;79.30;;;;;;5014747;28;20053;-76
2021/07/01 11:13:23;;;;;;;5.05;2.55;;;16.40;79.60;;;;;;5020347;28;20563;-73
2021/07/01 11:16:12;;;;;;;2.63;2.20;;;16.30;79.30;;;;;;5023661;28;20033;-74
2021/07/01 11:18:47;;;;;;;2.50;1.70;;;16.20;79.70;;;;;;5021201;28;20029;-74
2021/07/01 11:21:17;;;;;;;2.58;2.30;;;16.20;79.90;;;;;;5019554;28;20091;-74
2021/07/01 11:23:45;;;;;;;3.13;2.50;;;16.00;80.60;;;;;;5021686;28;20025;-74
2021/07/01 11:26:24;;;;;;;3.92;2.85;;;15.90;81.60;;;;;;5018691;28;20065;-74
2021/07/01 11:28:51;;;;;;;3.92;2.80;;;15.80;83.10;;;;;;5019739;28;20032;-74
2021/07/01 11:31:17;;;;;;;2.80;2.50;;;15.80;83.80;;;;;;5013489;28;20030;-73
2021/07/01 11:33:50;;;;;;;2.92;2.45;;;15.70;83.70;;;;;;5020288;28;20049;-73
2021/07/01 11:36:18;;;;;;;4.70;2.70;;;15.60;84.60;;;;;;5013507;28;20032;-73
2021/07/01 11:38:45;;;;;;;5.03;2.70;;;15.60;84.90;;;;;;5012744;28;20468;-73
2021/07/01 11:41:11;;;;;;;4.13;2.63;;;15.60;85.80;;;;;;5014075;28;20033;-74
2021/07/01 11:43:39;;;;;;;3.50;2.60;;;15.60;86.10;;;;;;5023503;28;20040;-72
2021/07/01 11:46:06;;;;;;;3.05;2.72;;;15.70;87.00;;;;;;5020399;28;20388;-74
2021/07/01 11:48:33;;;;;;;3.05;2.60;;;15.70;87.40;;;;;;5024274;28;20057;-72
2021/07/01 11:51:00;;;;;;;5.80;3.10;;;15.80;87.50;;;;;;5018912;28;20107;-74
2021/07/01 11:53:26;;;;;;;3.08;2.60;;;15.90;86.30;;;;;;5026791;28;20017;-74
2021/07/01 11:55:57;;;;;;;4.70;2.70;;;16.00;84.80;;;;;;5025579;28;20034;-74
2021/07/01 11:58:23;;;;;;;2.67;2.40;;;16.00;85.30;;;;;;5020743;28;20421;-74
2021/07/01 12:00:49;;;;;;;4.40;2.83;;;16.10;85.00;;;;;;5021570;28;20066;-73
2021/07/01 12:03:15;;;;;;;4.10;2.42;;;16.10;87.00;;;;;;5024012;28;20666;-74
2021/07/01 12:05:44;;;;;;;3.55;2.80;;;16.20;87.30;;;;;;5026520;28;20116;-74
2021/07/01 12:08:12;;;;;;;3.10;2.80;;;16.20;85.80;;;;;;5019724;28;20022;-73
2021/07/01 12:10:38;;;;;;;3.93;2.80;;;16.20;85.70;;;;;;5027575;28;20036;-75
2021/07/01 12:13:32;;;;;;;3.17;2.83;;;16.20;85.70;;;;;;5024567;28;20283;-74
2021/07/01 12:16:06;;;;;;;3.17;2.53;;;16.10;85.00;;;;;;5025522;28;20100;-74
2021/07/01 12:18:49;;;;;;;4.05;3.00;;;16.20;85.80;;;;;;5027668;28;20310;-74
2021/07/01 12:21:23;;;;;;;3.53;2.65;;;16.10;85.90;;;;;;5025076;28;20030;-74
2021/07/01 12:24:07;;;;;;;2.67;2.47;;;16.10;85.90;;;;;;5022878;28;20377;-74
2021/07/01 12:26:36;;;;;;;3.78;2.00;;;16.10;86.30;;;;;;5024158;28;20034;-74
2021/07/01 12:29:17;;;;;;;2.92;2.40;;;16.10;84.70;;;;;;5016946;28;20037;-74
2021/07/01 12:31:43;;;;;;;3.35;2.33;;;16.10;84.60;;;;;;5021755;28;20022;-74
2021/07/01 12:34:11;;;;;;;2.63;2.38;;;16.00;82.80;;;;;;5026591;28;20504;-74
2021/07/01 12:36:40;;;;;;;;;;;16.00;82.80;;;;;;5017651;28;20424;-75
2021/07/01 12:39:12;;;;;;;3.10;2.30;;;16.00;84.50;;;;;;5015906;28;19999;-73
2021/07/01 12:41:41;;;;;;;2.85;2.05;;;16.10;87.10;;;;;;5022437;28;20031;-74
2021/07/01 12:44:08;;;;;;;3.10;2.20;;;16.20;84.80;;;;;;5018552;28;20455;-74
2021/07/01 12:49:15;;;;;;;4.00;2.10;;;16.20;84.10;;;;;;5024972;28;20034;-74
2021/07/01 12:51:44;;;;;;;2.92;2.25;;;16.20;84.10;;;;;;5027561;28;20029;-74
2021/07/01 12:54:36;;;;;;;3.38;2.35;;;16.20;83.90;;;;;;5020754;28;20060;-75